NKS235 KABQ-KLAS
Flight info
| Callsign | NKS235 |
|---|---|
| Flight time | 1h 41m |
| Altitude | 36000 |
| Route | ADYOS3 GUP HAHAA RKSTR4 |
| Aircraft | A320/M-SDE3FGHIRWY/LB1 |
Departure
| Time | 2026-05-04 21:03 |
|---|---|
| Airport | Albuquerque International Sunport (KABQ) |
Arrival
| Time | 2026-05-04 22:45 |
|---|---|
| Airport | Harry Reid International Airport (KLAS) |
| Time | Latitude | Longitude | Altitude | Speed | Heading |
|---|---|---|---|---|---|
| 2026-05-04 20:46 | 35.04687 | -106.61490 | 5322 ft | 0 kts | 11° |
| 2026-05-04 20:47 | 35.04683 | -106.61491 | 5322 ft | 3 kts | 11° |
| 2026-05-04 20:47 | 35.04657 | -106.61497 | 5317 ft | 2 kts | 11° |
| 2026-05-04 20:47 | 35.04636 | -106.61505 | 5312 ft | 4 kts | 47° |
| 2026-05-04 20:47 | 35.04624 | -106.61532 | 5322 ft | 2 kts | 66° |
| 2026-05-04 20:48 | 35.04617 | -106.61552 | 5322 ft | 4 kts | 84° |
| 2026-05-04 20:48 | 35.04622 | -106.61581 | 5318 ft | 4 kts | 99° |
| 2026-05-04 20:48 | 35.04623 | -106.61613 | 5312 ft | 4 kts | 91° |
| 2026-05-04 20:48 | 35.04623 | -106.61646 | 5322 ft | 4 kts | 90° |
| 2026-05-04 20:49 | 35.04623 | -106.61679 | 5312 ft | 4 kts | 90° |
| 2026-05-04 20:49 | 35.04623 | -106.61712 | 5322 ft | 4 kts | 90° |
| 2026-05-04 20:49 | 35.04623 | -106.61745 | 5317 ft | 4 kts | 90° |
| 2026-05-04 20:49 | 35.04623 | -106.61758 | 5312 ft | 0 kts | 90° |
| 2026-05-04 20:54 | 35.04623 | -106.61755 | 5322 ft | 2 kts | 93° |
| 2026-05-04 20:54 | 35.04597 | -106.61699 | 5315 ft | 10 kts | 135° |
| 2026-05-04 20:55 | 35.04556 | -106.61629 | 5320 ft | 12 kts | 107° |
| 2026-05-04 20:55 | 35.04551 | -106.61447 | 5321 ft | 18 kts | 90° |
| 2026-05-04 20:55 | 35.04577 | -106.61310 | 5320 ft | 16 kts | 75° |
| 2026-05-04 20:55 | 35.04578 | -106.61165 | 5322 ft | 18 kts | 94° |
| 2026-05-04 20:56 | 35.04576 | -106.61059 | 5321 ft | 20 kts | 90° |
| 2026-05-04 20:56 | 35.04575 | -106.60886 | 5321 ft | 21 kts | 91° |
| 2026-05-04 20:56 | 35.04574 | -106.60704 | 5322 ft | 22 kts | 90° |
| 2026-05-04 20:56 | 35.04573 | -106.60508 | 5321 ft | 24 kts | 90° |
| 2026-05-04 20:57 | 35.04572 | -106.60306 | 5322 ft | 24 kts | 91° |
| 2026-05-04 20:57 | 35.04570 | -106.60095 | 5321 ft | 26 kts | 90° |
| 2026-05-04 20:57 | 35.04578 | -106.59884 | 5321 ft | 24 kts | 83° |
| 2026-05-04 20:57 | 35.04582 | -106.59677 | 5321 ft | 25 kts | 90° |
| 2026-05-04 20:58 | 35.04581 | -106.59459 | 5315 ft | 24 kts | 89° |
| 2026-05-04 20:58 | 35.04579 | -106.59262 | 5319 ft | 24 kts | 90° |
| 2026-05-04 20:58 | 35.04578 | -106.59059 | 5321 ft | 24 kts | 90° |
| 2026-05-04 20:58 | 35.04576 | -106.58849 | 5321 ft | 25 kts | 91° |
| 2026-05-04 20:59 | 35.04576 | -106.58636 | 5321 ft | 25 kts | 90° |
| 2026-05-04 20:59 | 35.04574 | -106.58416 | 5321 ft | 26 kts | 90° |
| 2026-05-04 20:59 | 35.04573 | -106.58199 | 5321 ft | 26 kts | 91° |
| 2026-05-04 20:59 | 35.04571 | -106.57971 | 5314 ft | 27 kts | 90° |
| 2026-05-04 21:00 | 35.04570 | -106.57753 | 5318 ft | 23 kts | 90° |
| 2026-05-04 21:00 | 35.04554 | -106.57598 | 5312 ft | 13 kts | 127° |
| 2026-05-04 21:00 | 35.04504 | -106.57569 | 5320 ft | 0 kts | 172° |
| 2026-05-04 21:00 | 35.04491 | -106.57567 | 5317 ft | 3 kts | 175° |
| 2026-05-04 21:01 | 35.04459 | -106.57569 | 5320 ft | 6 kts | 186° |
| 2026-05-04 21:01 | 35.04407 | -106.57598 | 5314 ft | 10 kts | 229° |
| 2026-05-04 21:01 | 35.04404 | -106.57688 | 5319 ft | 12 kts | 272° |
| 2026-05-04 21:01 | 35.04405 | -106.57722 | 5319 ft | 0 kts | 271° |
| 2026-05-04 21:02 | 35.04405 | -106.57725 | 5319 ft | 0 kts | 271° |
| 2026-05-04 21:02 | 35.04405 | -106.57731 | 5319 ft | 10 kts | 271° |
| 2026-05-04 21:03 | 35.04405 | -106.58135 | 5321 ft | 82 kts | 270° |
| 2026-05-04 21:03 | 35.04412 | -106.59077 | 5322 ft | 138 kts | 271° |
| 2026-05-04 21:03 | 35.04395 | -106.60414 | 5494 ft | 166 kts | 264° |
| 2026-05-04 21:03 | 35.04361 | -106.61785 | 6242 ft | 162 kts | 263° |
| 2026-05-04 21:04 | 35.04333 | -106.63149 | 6944 ft | 160 kts | 264° |
| 2026-05-04 21:04 | 35.04322 | -106.64539 | 7304 ft | 174 kts | 265° |
| 2026-05-04 21:04 | 35.04302 | -106.66097 | 7558 ft | 194 kts | 266° |
| 2026-05-04 21:04 | 35.04281 | -106.67850 | 7844 ft | 219 kts | 267° |
| 2026-05-04 21:05 | 35.04278 | -106.69804 | 8213 ft | 242 kts | 269° |
| 2026-05-04 21:05 | 35.04291 | -106.71958 | 8573 ft | 266 kts | 269° |
| 2026-05-04 21:05 | 35.04307 | -106.74266 | 9163 ft | 276 kts | 269° |
| 2026-05-04 21:05 | 35.04329 | -106.76632 | 9986 ft | 281 kts | 269° |
| 2026-05-04 21:06 | 35.04349 | -106.79085 | 10401 ft | 300 kts | 270° |
| 2026-05-04 21:06 | 35.04370 | -106.81706 | 10815 ft | 315 kts | 270° |
| 2026-05-04 21:06 | 35.04427 | -106.84350 | 11548 ft | 318 kts | 271° |
| 2026-05-04 21:06 | 35.04524 | -106.87052 | 12358 ft | 319 kts | 271° |
| 2026-05-04 21:07 | 35.04636 | -106.89754 | 12998 ft | 319 kts | 272° |
| 2026-05-04 21:07 | 35.04931 | -106.92449 | 13810 ft | 322 kts | 282° |
| 2026-05-04 21:07 | 35.05677 | -106.95028 | 14588 ft | 325 kts | 291° |
| 2026-05-04 21:07 | 35.06599 | -106.97550 | 15320 ft | 326 kts | 292° |
| 2026-05-04 21:08 | 35.07519 | -107.00081 | 16044 ft | 327 kts | 292° |
| 2026-05-04 21:08 | 35.08438 | -107.02624 | 16760 ft | 328 kts | 292° |
| 2026-05-04 21:08 | 35.09359 | -107.05184 | 17458 ft | 330 kts | 292° |
| 2026-05-04 21:08 | 35.10270 | -107.07720 | 18158 ft | 331 kts | 293° |
| 2026-05-04 21:09 | 35.11196 | -107.10307 | 18780 ft | 333 kts | 292° |
| 2026-05-04 21:09 | 35.12127 | -107.12912 | 19417 ft | 336 kts | 291° |
| 2026-05-04 21:09 | 35.13065 | -107.15531 | 20062 ft | 338 kts | 291° |
| 2026-05-04 21:09 | 35.14006 | -107.18173 | 20696 ft | 340 kts | 290° |
| 2026-05-04 21:10 | 35.14948 | -107.20832 | 21296 ft | 342 kts | 289° |
| 2026-05-04 21:10 | 35.15901 | -107.23507 | 21902 ft | 345 kts | 289° |
| 2026-05-04 21:10 | 35.16691 | -107.26263 | 22526 ft | 343 kts | 280° |
| 2026-05-04 21:10 | 35.17170 | -107.29115 | 23144 ft | 344 kts | 277° |
| 2026-05-04 21:11 | 35.17636 | -107.31991 | 23690 ft | 346 kts | 277° |
| 2026-05-04 21:11 | 35.18096 | -107.34836 | 24206 ft | 346 kts | 277° |
| 2026-05-04 21:11 | 35.18561 | -107.37724 | 24741 ft | 347 kts | 277° |
| 2026-05-04 21:11 | 35.19026 | -107.40619 | 25239 ft | 348 kts | 277° |
| 2026-05-04 21:12 | 35.19493 | -107.43527 | 25651 ft | 350 kts | 277° |
| 2026-05-04 21:12 | 35.19964 | -107.46452 | 26154 ft | 351 kts | 277° |
| 2026-05-04 21:12 | 35.20437 | -107.49381 | 26641 ft | 352 kts | 277° |
| 2026-05-04 21:12 | 35.20911 | -107.52318 | 27139 ft | 353 kts | 276° |
| 2026-05-04 21:13 | 35.21388 | -107.55265 | 27641 ft | 353 kts | 277° |
| 2026-05-04 21:13 | 35.21856 | -107.58168 | 28107 ft | 354 kts | 276° |
| 2026-05-04 21:13 | 35.22330 | -107.61137 | 28552 ft | 356 kts | 277° |
| 2026-05-04 21:13 | 35.22806 | -107.64115 | 29023 ft | 357 kts | 277° |
| 2026-05-04 21:14 | 35.23282 | -107.67105 | 29496 ft | 359 kts | 277° |
| 2026-05-04 21:14 | 35.23758 | -107.70109 | 29947 ft | 361 kts | 277° |
| 2026-05-04 21:14 | 35.24237 | -107.73132 | 30338 ft | 362 kts | 277° |
| 2026-05-04 21:14 | 35.24717 | -107.76158 | 30669 ft | 363 kts | 277° |
| 2026-05-04 21:15 | 35.25200 | -107.79199 | 31016 ft | 365 kts | 277° |
| 2026-05-04 21:15 | 35.25684 | -107.82253 | 31689 ft | 365 kts | 277° |
| 2026-05-04 21:15 | 35.26165 | -107.85292 | 32237 ft | 362 kts | 277° |
| 2026-05-04 21:15 | 35.26634 | -107.88250 | 32799 ft | 358 kts | 277° |
| 2026-05-04 21:16 | 35.27102 | -107.91225 | 33389 ft | 353 kts | 277° |
| 2026-05-04 21:16 | 35.27561 | -107.94161 | 33986 ft | 349 kts | 277° |
| 2026-05-04 21:16 | 35.28017 | -107.97060 | 34482 ft | 345 kts | 277° |
| 2026-05-04 21:16 | 35.28469 | -107.99938 | 34912 ft | 343 kts | 277° |
| 2026-05-04 21:17 | 35.28915 | -108.02792 | 35297 ft | 342 kts | 277° |
| 2026-05-04 21:17 | 35.29359 | -108.05649 | 35664 ft | 340 kts | 276° |
| 2026-05-04 21:17 | 35.29801 | -108.08493 | 35898 ft | 340 kts | 276° |
| 2026-05-04 21:17 | 35.30241 | -108.11325 | 35929 ft | 337 kts | 276° |
| 2026-05-04 21:18 | 35.31102 | -108.16885 | 35882 ft | 334 kts | 276° |
| 2026-05-04 21:18 | 35.31959 | -108.22466 | 35832 ft | 333 kts | 276° |
| 2026-05-04 21:19 | 35.32819 | -108.28047 | 35781 ft | 334 kts | 276° |
| 2026-05-04 21:19 | 35.33680 | -108.33621 | 35777 ft | 331 kts | 276° |
| 2026-05-04 21:20 | 35.34748 | -108.39109 | 35766 ft | 334 kts | 282° |
| 2026-05-04 21:20 | 35.36201 | -108.44485 | 35755 ft | 335 kts | 282° |
| 2026-05-04 21:21 | 35.37655 | -108.49905 | 35762 ft | 335 kts | 282° |
| 2026-05-04 21:21 | 35.39108 | -108.55325 | 35772 ft | 335 kts | 282° |
| 2026-05-04 21:22 | 35.40557 | -108.60745 | 35766 ft | 335 kts | 281° |
| 2026-05-04 21:22 | 35.42003 | -108.66174 | 35762 ft | 335 kts | 282° |
| 2026-05-04 21:23 | 35.43439 | -108.71560 | 35760 ft | 335 kts | 281° |
| 2026-05-04 21:23 | 35.44882 | -108.76990 | 36078 ft | 335 kts | 281° |
| 2026-05-04 21:24 | 35.46316 | -108.82423 | 36089 ft | 335 kts | 281° |
| 2026-05-04 21:24 | 35.47541 | -108.87882 | 36088 ft | 328 kts | 272° |
| 2026-05-04 21:25 | 35.47641 | -108.93413 | 36067 ft | 326 kts | 267° |
| 2026-05-04 21:25 | 35.47661 | -108.98970 | 36018 ft | 325 kts | 267° |
| 2026-05-04 21:26 | 35.47683 | -109.04519 | 36000 ft | 325 kts | 268° |
| 2026-05-04 21:26 | 35.47709 | -109.10059 | 35994 ft | 325 kts | 268° |
| 2026-05-04 21:27 | 35.47732 | -109.15602 | 35992 ft | 325 kts | 267° |
| 2026-05-04 21:27 | 35.47749 | -109.21107 | 35973 ft | 325 kts | 267° |
| 2026-05-04 21:28 | 35.47761 | -109.26650 | 35954 ft | 325 kts | 267° |
| 2026-05-04 21:28 | 35.47772 | -109.32196 | 35926 ft | 325 kts | 267° |
| 2026-05-04 21:29 | 35.47782 | -109.37741 | 35892 ft | 325 kts | 267° |
| 2026-05-04 21:29 | 35.47790 | -109.43282 | 35858 ft | 325 kts | 267° |
| 2026-05-04 21:30 | 35.47797 | -109.48781 | 35840 ft | 325 kts | 266° |
| 2026-05-04 21:30 | 35.47800 | -109.54321 | 35838 ft | 325 kts | 266° |
| 2026-05-04 21:31 | 35.47796 | -109.62638 | 35839 ft | 325 kts | 266° |
| 2026-05-04 21:32 | 35.47795 | -109.68177 | 35834 ft | 325 kts | 266° |
| 2026-05-04 21:32 | 35.47787 | -109.73699 | 35835 ft | 325 kts | 266° |
| 2026-05-04 21:33 | 35.47775 | -109.79246 | 35835 ft | 325 kts | 266° |
| 2026-05-04 21:33 | 35.47765 | -109.84789 | 35836 ft | 325 kts | 266° |
| 2026-05-04 21:34 | 35.47754 | -109.90339 | 35834 ft | 325 kts | 266° |
| 2026-05-04 21:34 | 35.47733 | -109.95885 | 35833 ft | 325 kts | 266° |
| 2026-05-04 21:35 | 35.47712 | -110.01426 | 35834 ft | 325 kts | 265° |
| 2026-05-04 21:35 | 35.47694 | -110.06932 | 35833 ft | 325 kts | 266° |
| 2026-05-04 21:36 | 35.47674 | -110.12479 | 35832 ft | 325 kts | 265° |
| 2026-05-04 21:36 | 35.47646 | -110.18021 | 35847 ft | 324 kts | 265° |
| 2026-05-04 21:37 | 35.47610 | -110.23554 | 35845 ft | 324 kts | 265° |
| 2026-05-04 21:37 | 35.47578 | -110.29047 | 35842 ft | 324 kts | 265° |
| 2026-05-04 21:38 | 35.47547 | -110.34580 | 35845 ft | 324 kts | 265° |
| 2026-05-04 21:38 | 35.47511 | -110.40111 | 35840 ft | 324 kts | 265° |
| 2026-05-04 21:39 | 35.47466 | -110.45646 | 35838 ft | 324 kts | 265° |
| 2026-05-04 21:39 | 35.47418 | -110.51131 | 35844 ft | 324 kts | 264° |
| 2026-05-04 21:40 | 35.47378 | -110.56670 | 35843 ft | 324 kts | 264° |
| 2026-05-04 21:40 | 35.47332 | -110.62203 | 35838 ft | 324 kts | 264° |
| 2026-05-04 21:41 | 35.47283 | -110.67730 | 35834 ft | 324 kts | 264° |
| 2026-05-04 21:41 | 35.47236 | -110.73249 | 35833 ft | 324 kts | 264° |
| 2026-05-04 21:42 | 35.47179 | -110.78748 | 35832 ft | 324 kts | 264° |
| 2026-05-04 21:42 | 35.47117 | -110.84271 | 35844 ft | 323 kts | 263° |
| 2026-05-04 21:43 | 35.47056 | -110.89784 | 35833 ft | 323 kts | 263° |
| 2026-05-04 21:43 | 35.46991 | -110.95291 | 35830 ft | 322 kts | 263° |
| 2026-05-04 21:44 | 35.46928 | -111.00785 | 35822 ft | 322 kts | 263° |
| 2026-05-04 21:44 | 35.46867 | -111.06240 | 35819 ft | 322 kts | 263° |
| 2026-05-04 21:45 | 35.46801 | -111.11734 | 35817 ft | 322 kts | 263° |
| 2026-05-04 21:45 | 35.46729 | -111.17223 | 35794 ft | 322 kts | 263° |
| 2026-05-04 21:46 | 35.46653 | -111.22727 | 35793 ft | 323 kts | 263° |
| 2026-05-04 21:46 | 35.46575 | -111.28196 | 35808 ft | 323 kts | 263° |
| 2026-05-04 21:47 | 35.46493 | -111.33711 | 35809 ft | 323 kts | 263° |
| 2026-05-04 21:47 | 35.46407 | -111.39223 | 35813 ft | 324 kts | 263° |
| 2026-05-04 21:48 | 35.46325 | -111.44742 | 35833 ft | 323 kts | 263° |
| 2026-05-04 21:48 | 35.46239 | -111.50250 | 35819 ft | 323 kts | 263° |
| 2026-05-04 21:49 | 35.46148 | -111.55769 | 35840 ft | 324 kts | 263° |
| 2026-05-04 21:49 | 35.46053 | -111.61253 | 35840 ft | 324 kts | 263° |
| 2026-05-04 21:50 | 35.45956 | -111.66772 | 35844 ft | 324 kts | 263° |
| 2026-05-04 21:50 | 35.45861 | -111.72310 | 35848 ft | 325 kts | 263° |
| 2026-05-04 21:51 | 35.45761 | -111.77818 | 35856 ft | 322 kts | 263° |
| 2026-05-04 21:51 | 35.45661 | -111.83303 | 35889 ft | 322 kts | 263° |
| 2026-05-04 21:52 | 35.45916 | -111.88784 | 35922 ft | 329 kts | 270° |
| 2026-05-04 21:52 | 35.46627 | -111.94338 | 35950 ft | 330 kts | 270° |
| 2026-05-04 21:53 | 35.47337 | -111.99894 | 35976 ft | 330 kts | 270° |
| 2026-05-04 21:53 | 35.48041 | -112.05462 | 35995 ft | 330 kts | 270° |
| 2026-05-04 21:54 | 35.48737 | -112.11025 | 36007 ft | 330 kts | 270° |
| 2026-05-04 21:54 | 35.49424 | -112.16557 | 36029 ft | 330 kts | 270° |
| 2026-05-04 21:55 | 35.50111 | -112.22117 | 36014 ft | 330 kts | 270° |
| 2026-05-04 21:55 | 35.50800 | -112.27689 | 35995 ft | 330 kts | 270° |
| 2026-05-04 21:56 | 35.51486 | -112.33253 | 35969 ft | 330 kts | 270° |
| 2026-05-04 21:56 | 35.52164 | -112.38783 | 35944 ft | 329 kts | 270° |
| 2026-05-04 21:57 | 35.52841 | -112.44343 | 35915 ft | 329 kts | 270° |
| 2026-05-04 21:57 | 35.53517 | -112.49898 | 35899 ft | 329 kts | 269° |
| 2026-05-04 21:58 | 35.54192 | -112.55453 | 35879 ft | 328 kts | 269° |
| 2026-05-04 21:58 | 35.54861 | -112.60990 | 35861 ft | 328 kts | 269° |
| 2026-05-04 21:59 | 35.55526 | -112.66504 | 35577 ft | 329 kts | 269° |
| 2026-05-04 21:59 | 35.55860 | -112.69274 | 35331 ft | 327 kts | 269° |
| 2026-05-04 21:59 | 35.56192 | -112.72028 | 35097 ft | 325 kts | 269° |
| 2026-05-04 21:59 | 35.56520 | -112.74776 | 34855 ft | 324 kts | 269° |
| 2026-05-04 22:00 | 35.56846 | -112.77507 | 34625 ft | 323 kts | 269° |
| 2026-05-04 22:00 | 35.57169 | -112.80225 | 34391 ft | 321 kts | 268° |
| 2026-05-04 22:00 | 35.57490 | -112.82927 | 34154 ft | 319 kts | 268° |
| 2026-05-04 22:00 | 35.57810 | -112.85613 | 33950 ft | 315 kts | 268° |
| 2026-05-04 22:01 | 35.58126 | -112.88244 | 33604 ft | 309 kts | 268° |
| 2026-05-04 22:01 | 35.58433 | -112.90846 | 33140 ft | 307 kts | 267° |
| 2026-05-04 22:01 | 35.58731 | -112.93394 | 32707 ft | 304 kts | 267° |
| 2026-05-04 22:01 | 35.59030 | -112.95957 | 32284 ft | 302 kts | 267° |
| 2026-05-04 22:02 | 35.59329 | -112.98509 | 31855 ft | 301 kts | 267° |
| 2026-05-04 22:02 | 35.59628 | -113.01048 | 31443 ft | 300 kts | 267° |
| 2026-05-04 22:02 | 35.59924 | -113.03583 | 31032 ft | 300 kts | 267° |
| 2026-05-04 22:02 | 35.60217 | -113.06131 | 30624 ft | 301 kts | 267° |
| 2026-05-04 22:03 | 35.60509 | -113.08682 | 30222 ft | 302 kts | 268° |
| 2026-05-04 22:03 | 35.60804 | -113.11238 | 29838 ft | 303 kts | 267° |
| 2026-05-04 22:03 | 35.61102 | -113.13803 | 29385 ft | 303 kts | 267° |
| 2026-05-04 22:03 | 35.61401 | -113.16354 | 28997 ft | 301 kts | 267° |
| 2026-05-04 22:04 | 35.61693 | -113.18858 | 28626 ft | 299 kts | 268° |
| 2026-05-04 22:04 | 35.61985 | -113.21370 | 28263 ft | 296 kts | 268° |
| 2026-05-04 22:04 | 35.62274 | -113.23863 | 27897 ft | 293 kts | 268° |
| 2026-05-04 22:04 | 35.62562 | -113.26330 | 27551 ft | 291 kts | 269° |
| 2026-05-04 22:05 | 35.62843 | -113.28783 | 27161 ft | 288 kts | 269° |
| 2026-05-04 22:05 | 35.63119 | -113.31209 | 26798 ft | 286 kts | 269° |
| 2026-05-04 22:05 | 35.63393 | -113.33620 | 26425 ft | 284 kts | 269° |
| 2026-05-04 22:05 | 35.63665 | -113.36014 | 26054 ft | 282 kts | 270° |
| 2026-05-04 22:06 | 35.63937 | -113.38393 | 25675 ft | 280 kts | 270° |
| 2026-05-04 22:06 | 35.64206 | -113.40754 | 25291 ft | 278 kts | 270° |
| 2026-05-04 22:06 | 35.64467 | -113.43079 | 24921 ft | 278 kts | 270° |
| 2026-05-04 22:06 | 35.64731 | -113.45437 | 24528 ft | 278 kts | 271° |
| 2026-05-04 22:07 | 35.64997 | -113.47781 | 24135 ft | 277 kts | 271° |
| 2026-05-04 22:07 | 35.65270 | -113.50124 | 23740 ft | 278 kts | 272° |
| 2026-05-04 22:07 | 35.65614 | -113.52490 | 23468 ft | 289 kts | 275° |
| 2026-05-04 22:07 | 35.66016 | -113.54962 | 23136 ft | 298 kts | 276° |
| 2026-05-04 22:08 | 35.66444 | -113.57468 | 22821 ft | 301 kts | 276° |
| 2026-05-04 22:08 | 35.66879 | -113.59984 | 22513 ft | 301 kts | 276° |
| 2026-05-04 22:08 | 35.67309 | -113.62501 | 22199 ft | 301 kts | 276° |
| 2026-05-04 22:08 | 35.67732 | -113.65021 | 21896 ft | 300 kts | 275° |
| 2026-05-04 22:09 | 35.68145 | -113.67537 | 21591 ft | 300 kts | 275° |
| 2026-05-04 22:09 | 35.68550 | -113.70047 | 21288 ft | 300 kts | 276° |
| 2026-05-04 22:09 | 35.68955 | -113.72525 | 20989 ft | 299 kts | 276° |
| 2026-05-04 22:09 | 35.69369 | -113.75039 | 20687 ft | 299 kts | 276° |
| 2026-05-04 22:10 | 35.69779 | -113.77545 | 20379 ft | 299 kts | 275° |
| 2026-05-04 22:10 | 35.70187 | -113.80048 | 20074 ft | 298 kts | 276° |
| 2026-05-04 22:10 | 35.70593 | -113.82552 | 19769 ft | 298 kts | 275° |
| 2026-05-04 22:10 | 35.70999 | -113.85054 | 19468 ft | 298 kts | 276° |
| 2026-05-04 22:11 | 35.71403 | -113.87558 | 19163 ft | 298 kts | 276° |
| 2026-05-04 22:11 | 35.71806 | -113.90063 | 18861 ft | 298 kts | 276° |
| 2026-05-04 22:11 | 35.72209 | -113.92566 | 18568 ft | 299 kts | 276° |
| 2026-05-04 22:11 | 35.72614 | -113.95081 | 18265 ft | 300 kts | 276° |
| 2026-05-04 22:12 | 35.73018 | -113.97601 | 17940 ft | 300 kts | 276° |
| 2026-05-04 22:12 | 35.73415 | -114.00080 | 17689 ft | 299 kts | 276° |
| 2026-05-04 22:12 | 35.73819 | -114.02599 | 17423 ft | 300 kts | 276° |
| 2026-05-04 22:12 | 35.74223 | -114.05115 | 17125 ft | 300 kts | 276° |
| 2026-05-04 22:13 | 35.74626 | -114.07631 | 16832 ft | 299 kts | 276° |
| 2026-05-04 22:13 | 35.75027 | -114.10137 | 16523 ft | 298 kts | 276° |
| 2026-05-04 22:13 | 35.75426 | -114.12639 | 16221 ft | 298 kts | 276° |
| 2026-05-04 22:13 | 35.75897 | -114.15127 | 15905 ft | 301 kts | 284° |
| 2026-05-04 22:14 | 35.76806 | -114.17476 | 15605 ft | 307 kts | 293° |
| 2026-05-04 22:14 | 35.77833 | -114.19776 | 15295 ft | 306 kts | 292° |
| 2026-05-04 22:14 | 35.78839 | -114.22035 | 15017 ft | 305 kts | 292° |
| 2026-05-04 22:14 | 35.79853 | -114.24329 | 14715 ft | 305 kts | 292° |
| 2026-05-04 22:15 | 35.80864 | -114.26617 | 14419 ft | 304 kts | 292° |
| 2026-05-04 22:15 | 35.81870 | -114.28905 | 14117 ft | 304 kts | 293° |
| 2026-05-04 22:15 | 35.82873 | -114.31196 | 13819 ft | 304 kts | 292° |
| 2026-05-04 22:15 | 35.83907 | -114.33472 | 13513 ft | 306 kts | 298° |
| 2026-05-04 22:16 | 35.85194 | -114.35582 | 13190 ft | 308 kts | 303° |
| 2026-05-04 22:16 | 35.86504 | -114.37669 | 12881 ft | 307 kts | 302° |
| 2026-05-04 22:16 | 35.87806 | -114.39748 | 12589 ft | 306 kts | 302° |
| 2026-05-04 22:16 | 35.89097 | -114.41817 | 12280 ft | 303 kts | 303° |
| 2026-05-04 22:17 | 35.90378 | -114.43878 | 11987 ft | 302 kts | 302° |
| 2026-05-04 22:17 | 35.91653 | -114.45928 | 11700 ft | 300 kts | 302° |
| 2026-05-04 22:17 | 35.92908 | -114.47935 | 11413 ft | 299 kts | 303° |
| 2026-05-04 22:17 | 35.94177 | -114.49962 | 11133 ft | 297 kts | 302° |
| 2026-05-04 22:18 | 35.95438 | -114.51982 | 10847 ft | 296 kts | 303° |
| 2026-05-04 22:18 | 35.96687 | -114.53992 | 10565 ft | 295 kts | 303° |
| 2026-05-04 22:18 | 35.97925 | -114.55995 | 10284 ft | 292 kts | 303° |
| 2026-05-04 22:18 | 35.99153 | -114.57992 | 10004 ft | 291 kts | 302° |
| 2026-05-04 22:19 | 36.00373 | -114.59978 | 9727 ft | 290 kts | 302° |
| 2026-05-04 22:19 | 36.01590 | -114.61955 | 9426 ft | 287 kts | 302° |
| 2026-05-04 22:19 | 36.02792 | -114.63910 | 9140 ft | 284 kts | 302° |
| 2026-05-04 22:19 | 36.03945 | -114.65866 | 8875 ft | 278 kts | 297° |
| 2026-05-04 22:20 | 36.04918 | -114.67877 | 8607 ft | 275 kts | 297° |
| 2026-05-04 22:20 | 36.05904 | -114.69885 | 8322 ft | 272 kts | 297° |
| 2026-05-04 22:20 | 36.06835 | -114.71876 | 8059 ft | 264 kts | 289° |
| 2026-05-04 22:20 | 36.07305 | -114.74015 | 7781 ft | 255 kts | 270° |
| 2026-05-04 22:21 | 36.07341 | -114.76177 | 7487 ft | 251 kts | 265° |
| 2026-05-04 22:21 | 36.07342 | -114.78333 | 7203 ft | 250 kts | 266° |
| 2026-05-04 22:21 | 36.07344 | -114.80482 | 6905 ft | 250 kts | 265° |
| 2026-05-04 22:21 | 36.07347 | -114.82624 | 6609 ft | 249 kts | 266° |
| 2026-05-04 22:22 | 36.07353 | -114.84767 | 6304 ft | 249 kts | 267° |
| 2026-05-04 22:22 | 36.07359 | -114.86904 | 5985 ft | 248 kts | 266° |
| 2026-05-04 22:22 | 36.07362 | -114.89024 | 5661 ft | 242 kts | 265° |
| 2026-05-04 22:22 | 36.07366 | -114.91019 | 5372 ft | 230 kts | 266° |
| 2026-05-04 22:23 | 36.07371 | -114.92944 | 5092 ft | 217 kts | 268° |
| 2026-05-04 22:23 | 36.07376 | -114.94768 | 4827 ft | 207 kts | 265° |
| 2026-05-04 22:23 | 36.07378 | -114.96507 | 4582 ft | 199 kts | 265° |
| 2026-05-04 22:23 | 36.07379 | -114.98163 | 4356 ft | 186 kts | 265° |
| 2026-05-04 22:24 | 36.07379 | -114.99724 | 4098 ft | 176 kts | 264° |
| 2026-05-04 22:24 | 36.07381 | -115.01151 | 3890 ft | 154 kts | 265° |
| 2026-05-04 22:24 | 36.07384 | -115.02393 | 3674 ft | 139 kts | 264° |
| 2026-05-04 22:24 | 36.07382 | -115.03564 | 3505 ft | 134 kts | 263° |
| 2026-05-04 22:25 | 36.07376 | -115.04716 | 3325 ft | 135 kts | 262° |
| 2026-05-04 22:25 | 36.07369 | -115.05869 | 3144 ft | 135 kts | 262° |
| 2026-05-04 22:25 | 36.07363 | -115.07031 | 2989 ft | 137 kts | 269° |
| 2026-05-04 22:25 | 36.07354 | -115.08195 | 2805 ft | 138 kts | 264° |
| 2026-05-04 22:26 | 36.07374 | -115.09393 | 2634 ft | 141 kts | 266° |
| 2026-05-04 22:26 | 36.07379 | -115.10599 | 2491 ft | 138 kts | 263° |
| 2026-05-04 22:26 | 36.07374 | -115.11739 | 2346 ft | 133 kts | 262° |
| 2026-05-04 22:26 | 36.07374 | -115.12913 | 2279 ft | 141 kts | 267° |
| 2026-05-04 22:27 | 36.07372 | -115.14135 | 2952 ft | 150 kts | 264° |
| 2026-05-04 22:27 | 36.07378 | -115.15430 | 3918 ft | 150 kts | 265° |
| 2026-05-04 22:27 | 36.07379 | -115.16786 | 4358 ft | 169 kts | 265° |
| 2026-05-04 22:27 | 36.07156 | -115.18268 | 4717 ft | 185 kts | 240° |
| 2026-05-04 22:28 | 36.06191 | -115.19350 | 5238 ft | 195 kts | 207° |
| 2026-05-04 22:28 | 36.04916 | -115.19974 | 5878 ft | 202 kts | 202° |
| 2026-05-04 22:28 | 36.03605 | -115.20526 | 5984 ft | 195 kts | 201° |
| 2026-05-04 22:28 | 36.02317 | -115.21052 | 6005 ft | 195 kts | 200° |
| 2026-05-04 22:29 | 36.00975 | -115.21335 | 6030 ft | 201 kts | 176° |
| 2026-05-04 22:29 | 35.99693 | -115.20600 | 6025 ft | 213 kts | 141° |
| 2026-05-04 22:29 | 35.98948 | -115.18980 | 6027 ft | 227 kts | 107° |
| 2026-05-04 22:29 | 35.98856 | -115.17011 | 6022 ft | 231 kts | 92° |
| 2026-05-04 22:30 | 35.98913 | -115.15044 | 6024 ft | 233 kts | 91° |
| 2026-05-04 22:30 | 35.99010 | -115.13017 | 6024 ft | 234 kts | 90° |
| 2026-05-04 22:30 | 35.99105 | -115.11040 | 6014 ft | 233 kts | 91° |
| 2026-05-04 22:30 | 35.99194 | -115.09040 | 6027 ft | 233 kts | 90° |
| 2026-05-04 22:31 | 35.99297 | -115.07047 | 6020 ft | 232 kts | 92° |
| 2026-05-04 22:31 | 35.99407 | -115.05048 | 6024 ft | 234 kts | 89° |
| 2026-05-04 22:31 | 35.99502 | -115.03052 | 6024 ft | 233 kts | 89° |
| 2026-05-04 22:31 | 35.99591 | -115.01069 | 6019 ft | 231 kts | 91° |
| 2026-05-04 22:32 | 35.99689 | -114.99097 | 5966 ft | 230 kts | 90° |
| 2026-05-04 22:32 | 35.99793 | -114.97137 | 5974 ft | 227 kts | 91° |
| 2026-05-04 22:32 | 35.99895 | -114.95188 | 5980 ft | 228 kts | 90° |
| 2026-05-04 22:32 | 35.99988 | -114.93239 | 5977 ft | 227 kts | 91° |
| 2026-05-04 22:33 | 36.00090 | -114.91322 | 5976 ft | 228 kts | 91° |
| 2026-05-04 22:33 | 36.00199 | -114.89363 | 5976 ft | 228 kts | 90° |
| 2026-05-04 22:33 | 36.00302 | -114.87409 | 5979 ft | 227 kts | 90° |
| 2026-05-04 22:33 | 36.00399 | -114.85474 | 5970 ft | 227 kts | 90° |
| 2026-05-04 22:34 | 36.00504 | -114.83527 | 5977 ft | 229 kts | 91° |
| 2026-05-04 22:34 | 36.00623 | -114.81561 | 5980 ft | 230 kts | 90° |
| 2026-05-04 22:34 | 36.00724 | -114.79591 | 5979 ft | 230 kts | 91° |
| 2026-05-04 22:34 | 36.00821 | -114.77627 | 5977 ft | 229 kts | 91° |
| 2026-05-04 22:35 | 36.00922 | -114.75659 | 5970 ft | 232 kts | 91° |
| 2026-05-04 22:35 | 36.01024 | -114.73687 | 5964 ft | 229 kts | 91° |
| 2026-05-04 22:35 | 36.01122 | -114.71739 | 5954 ft | 229 kts | 86° |
| 2026-05-04 22:35 | 36.01714 | -114.69898 | 5955 ft | 238 kts | 52° |
| 2026-05-04 22:36 | 36.03019 | -114.68704 | 5948 ft | 235 kts | 17° |
| 2026-05-04 22:36 | 36.04615 | -114.68560 | 5951 ft | 230 kts | 341° |
| 2026-05-04 22:36 | 36.05948 | -114.69454 | 5945 ft | 220 kts | 308° |
| 2026-05-04 22:36 | 36.06960 | -114.70867 | 5943 ft | 220 kts | 302° |
| 2026-05-04 22:37 | 36.07883 | -114.72367 | 5946 ft | 219 kts | 302° |
| 2026-05-04 22:37 | 36.08779 | -114.73871 | 5948 ft | 217 kts | 302° |
| 2026-05-04 22:37 | 36.09674 | -114.75373 | 5945 ft | 217 kts | 301° |
| 2026-05-04 22:37 | 36.10574 | -114.76864 | 5951 ft | 217 kts | 300° |
| 2026-05-04 22:38 | 36.11475 | -114.78354 | 5951 ft | 216 kts | 299° |
| 2026-05-04 22:38 | 36.12251 | -114.79925 | 5945 ft | 210 kts | 281° |
| 2026-05-04 22:38 | 36.12542 | -114.81670 | 5948 ft | 206 kts | 271° |
| 2026-05-04 22:38 | 36.12351 | -114.83358 | 5935 ft | 198 kts | 245° |
| 2026-05-04 22:39 | 36.11815 | -114.84921 | 5670 ft | 197 kts | 242° |
| 2026-05-04 22:39 | 36.11246 | -114.86442 | 5400 ft | 193 kts | 241° |
| 2026-05-04 22:39 | 36.10667 | -114.87910 | 5054 ft | 193 kts | 240° |
| 2026-05-04 22:39 | 36.10076 | -114.89372 | 4952 ft | 190 kts | 242° |
| 2026-05-04 22:40 | 36.09669 | -114.90366 | 4949 ft | 194 kts | 240° |
| 2026-05-04 22:40 | 36.08845 | -114.92356 | 4957 ft | 194 kts | 240° |
| 2026-05-04 22:40 | 36.08264 | -114.93784 | 4979 ft | 177 kts | 242° |
| 2026-05-04 22:40 | 36.07745 | -114.95072 | 4932 ft | 161 kts | 241° |
| 2026-05-04 22:41 | 36.07362 | -114.96361 | 4669 ft | 167 kts | 263° |
| 2026-05-04 22:41 | 36.07415 | -114.97817 | 4407 ft | 169 kts | 263° |
| 2026-05-04 22:41 | 36.07396 | -114.98773 | 4247 ft | 166 kts | 264° |
| 2026-05-04 22:41 | 36.07378 | -115.00147 | 4040 ft | 153 kts | 265° |
| 2026-05-04 22:42 | 36.07372 | -115.01410 | 3870 ft | 143 kts | 263° |
| 2026-05-04 22:42 | 36.07370 | -115.02625 | 3669 ft | 138 kts | 265° |
| 2026-05-04 22:42 | 36.07368 | -115.03801 | 3511 ft | 134 kts | 263° |
| 2026-05-04 22:42 | 36.07366 | -115.04966 | 3332 ft | 138 kts | 262° |
| 2026-05-04 22:43 | 36.07365 | -115.06150 | 3147 ft | 137 kts | 260° |
| 2026-05-04 22:43 | 36.07364 | -115.07330 | 2982 ft | 136 kts | 263° |
| 2026-05-04 22:43 | 36.07358 | -115.08512 | 2822 ft | 137 kts | 266° |
| 2026-05-04 22:43 | 36.07378 | -115.09702 | 2670 ft | 139 kts | 260° |
| 2026-05-04 22:44 | 36.07370 | -115.10896 | 2472 ft | 140 kts | 261° |
| 2026-05-04 22:44 | 36.07369 | -115.12104 | 2282 ft | 140 kts | 263° |
| 2026-05-04 22:44 | 36.07369 | -115.13278 | 2191 ft | 133 kts | 264° |
| 2026-05-04 22:44 | 36.07362 | -115.14283 | 2191 ft | 84 kts | 270° |
| 2026-05-04 22:45 | 36.07366 | -115.14711 | 2190 ft | 35 kts | 272° |
| 2026-05-04 22:45 | 36.07480 | -115.15072 | 2190 ft | 0 kts | 304° |
| 2026-05-04 22:45 | 36.07486 | -115.15082 | 2188 ft | 3 kts | 304° |
| 2026-05-04 22:46 | 36.07518 | -115.15118 | 2189 ft | 11 kts | 330° |
| 2026-05-04 22:46 | 36.07591 | -115.15167 | 2192 ft | 12 kts | 332° |
| 2026-05-04 22:46 | 36.07674 | -115.15216 | 2191 ft | 14 kts | 335° |
| 2026-05-04 22:46 | 36.07764 | -115.15264 | 2189 ft | 12 kts | 351° |
| 2026-05-04 22:47 | 36.07839 | -115.15303 | 2190 ft | 12 kts | 345° |
| 2026-05-04 22:47 | 36.07878 | -115.15252 | 2189 ft | 10 kts | 84° |
| 2026-05-04 22:47 | 36.07878 | -115.15156 | 2188 ft | 12 kts | 91° |
| 2026-05-04 22:47 | 36.07874 | -115.15039 | 2190 ft | 15 kts | 94° |
| 2026-05-04 22:48 | 36.07865 | -115.14907 | 2188 ft | 15 kts | 96° |
| 2026-05-04 22:48 | 36.07858 | -115.14797 | 2188 ft | 11 kts | 93° |
| 2026-05-04 22:48 | 36.07898 | -115.14737 | 2191 ft | 11 kts | 12° |
| 2026-05-04 22:48 | 36.07951 | -115.14756 | 2189 ft | 5 kts | 348° |
| 2026-05-04 22:49 | 36.07973 | -115.14736 | 2188 ft | 5 kts | 56° |
| 2026-05-04 22:49 | 36.07985 | -115.14711 | 2189 ft | 3 kts | 58° |
| 2026-05-04 22:49 | 36.07990 | -115.14702 | 2191 ft | 0 kts | 57° |